Terminal Aerodrome Forecast
Issued by NWS

Home | Current Version | Previous Version | Graphics & Text | Print | Product List | Glossary On
Versions: 1 2 3 4 5 6 7 8 9 10 11 12 13 14 15 16 17 18 19 20 21 22 23 24
000
FTUS43 KLOT 031507 AAA
TAFORD
TAF AMD
KORD 031507Z 0315/0418 31008KT P6SM OVC026
     FM040100 VRB03KT P6SM BKN040 OVC090
     FM041200 18005KT 6SM -SN OVC060
     FM041400 17006KT 3SM -SN SCT025 OVC050
     FM041530 17007KT 1SM -SN OVC015=

USA.gov is the U.S. government's official web portal to all federal, state and local government web resources and services.